createdAt,value
2022-12-28T00:00:22.905Z,17.38
2022-12-28T00:04:45.188Z,49.22
2022-12-28T00:08:47.501Z,23.80
2022-12-28T00:12:49.468Z,25.88
2022-12-28T00:16:51.387Z,44.83
2022-12-28T00:21:00.958Z,49.70
2022-12-28T00:25:03.093Z,17.67
2022-12-28T00:29:05.856Z,21.75
2022-12-28T00:33:08.276Z,19.10
2022-12-28T00:37:13.117Z,18.25
2022-12-28T00:41:15.267Z,10.35
2022-12-28T00:45:17.975Z,12.75
2022-12-28T00:49:19.994Z,17.25
2022-12-28T00:53:21.692Z,18.80
2022-12-28T00:57:23.596Z,10.25
2022-12-28T01:01:27.625Z,17.88
2022-12-28T01:05:29.787Z,15.25
2022-12-28T01:09:31.493Z,12.35
2022-12-28T01:13:33.493Z,20.45
2022-12-28T01:17:36.912Z,11.90
2022-12-28T01:21:40.683Z,10.25
2022-12-28T01:25:44.238Z,15.40
2022-12-28T01:29:46.332Z,10.57
2022-12-28T01:33:48.791Z,16.42
2022-12-28T01:37:50.687Z,8.98
2022-12-28T01:41:52.418Z,15.05
2022-12-28T01:45:54.589Z,9.77
2022-12-28T01:50:09.118Z,10.98
2022-12-28T01:54:11.554Z,8.73
2022-12-28T01:58:18.795Z,9.02
2022-12-28T02:02:22.087Z,8.97
2022-12-28T02:06:23.965Z,9.23
2022-12-28T02:10:40.749Z,7.85
2022-12-28T02:14:46.867Z,8.88
2022-12-28T02:18:49.915Z,9.20
2022-12-28T02:23:38.597Z,9.35
2022-12-28T02:28:01.855Z,8.27
2022-12-28T02:32:18.364Z,9.60
2022-12-28T02:36:26.874Z,9.23
2022-12-28T02:40:34.999Z,10.40
2022-12-28T02:49:17.090Z,11.48
2022-12-28T02:53:40.437Z,10.32
2022-12-28T02:58:05.062Z,12.48
2022-12-28T03:02:28.587Z,11.02
2022-12-28T03:07:17.380Z,11.13
2022-12-28T03:11:27.437Z,10.97
2022-12-28T03:15:37.294Z,10.77
2022-12-28T03:20:06.220Z,14.15
2022-12-28T03:24:29.205Z,10.85
2022-12-28T03:28:53.167Z,12.48
2022-12-28T03:32:56.030Z,11.43
2022-12-28T03:37:00.865Z,13.07
2022-12-28T03:41:12.355Z,14.10
2022-12-28T03:45:44.991Z,13.35
2022-12-28T03:49:44.432Z,16.50
2022-12-28T03:53:47.974Z,14.18
2022-12-28T03:57:52.664Z,13.95
2022-12-28T04:01:59.156Z,15.23
2022-12-28T04:06:01.608Z,14.35
2022-12-28T04:10:03.807Z,13.38
2022-12-28T04:14:10.640Z,14.35
2022-12-28T04:18:16.951Z,13.73
2022-12-28T04:22:18.772Z,15.63
2022-12-28T04:26:21.216Z,15.10
2022-12-28T04:30:25.809Z,13.75
2022-12-28T04:34:27.986Z,15.48
2022-12-28T04:38:39.203Z,15.18
2022-12-28T04:42:41.166Z,15.77
2022-12-28T04:46:42.850Z,15.80
2022-12-28T04:50:44.876Z,15.80
2022-12-28T04:54:46.618Z,14.90
2022-12-28T04:58:49.165Z,15.27
2022-12-28T05:02:50.852Z,14.70
2022-12-28T05:06:52.896Z,14.43
2022-12-28T05:10:54.638Z,16.17
2022-12-28T05:14:56.633Z,16.13
2022-12-28T05:18:58.455Z,15.75
2022-12-28T05:23:00.384Z,16.58
2022-12-28T05:27:02.151Z,17.10
2022-12-28T05:31:07.915Z,14.80
2022-12-28T05:35:09.893Z,17.17
2022-12-28T05:39:11.873Z,16.92
2022-12-28T05:43:13.626Z,16.80
2022-12-28T05:47:15.749Z,18.17
2022-12-28T05:51:20.509Z,16.83
2022-12-28T05:55:22.473Z,20.55
2022-12-28T05:59:24.316Z,22.08
2022-12-28T06:03:26.383Z,23.52
2022-12-28T06:07:28.170Z,23.13
2022-12-28T06:11:30.707Z,21.42
2022-12-28T06:15:32.349Z,22.95
2022-12-28T06:19:34.360Z,20.88
2022-12-28T06:23:36.703Z,24.88
2022-12-28T06:27:38.325Z,25.08
2022-12-28T06:31:44.497Z,27.52
2022-12-28T06:35:46.236Z,26.08
2022-12-28T06:39:48.186Z,27.05
2022-12-28T06:43:50.742Z,26.45
2022-12-28T06:47:52.679Z,25.17
2022-12-28T06:51:54.608Z,26.60
2022-12-28T06:55:59.237Z,25.20
2022-12-28T07:00:01.043Z,24.83
2022-12-28T07:04:04.722Z,27.13
2022-12-28T07:08:12.281Z,25.77
2022-12-28T07:12:14.600Z,28.25
2022-12-28T07:16:19.760Z,28.58
2022-12-28T07:20:21.880Z,27.25
2022-12-28T07:24:23.872Z,26.67
2022-12-28T07:28:25.552Z,27.20
2022-12-28T07:32:27.571Z,26.98
2022-12-28T07:36:31.956Z,26.58
2022-12-28T07:40:33.606Z,26.35
2022-12-28T07:44:38.193Z,27.13
2022-12-28T07:48:41.356Z,23.02
2022-12-28T07:52:43.307Z,27.02
2022-12-28T07:56:45.266Z,25.85
2022-12-28T08:00:47.241Z,26.30
2022-12-28T08:04:52.275Z,24.77
2022-12-28T08:08:58.259Z,24.15
2022-12-28T08:13:01.157Z,22.50
2022-12-28T08:17:03.107Z,23.83
2022-12-28T08:21:07.721Z,21.65
2022-12-28T08:25:09.906Z,23.15
2022-12-28T08:29:15.522Z,21.70
2022-12-28T08:33:17.173Z,21.13
2022-12-28T08:37:20.314Z,19.48
2022-12-28T08:41:23.906Z,21.67
2022-12-28T08:45:26.478Z,20.40
2022-12-28T08:49:28.170Z,19.58
2022-12-28T08:53:30.343Z,18.00
2022-12-28T08:57:33.441Z,19.23
2022-12-28T09:01:44.239Z,18.38
2022-12-28T09:05:47.919Z,19.40
2022-12-28T09:09:53.231Z,20.10
2022-12-28T09:13:55.250Z,18.17
2022-12-28T09:17:56.894Z,16.83
2022-12-28T09:21:59.093Z,17.75
2022-12-28T09:26:11.314Z,16.67
2022-12-28T09:30:13.474Z,17.15
2022-12-28T09:38:37.514Z,15.85
2022-12-28T09:42:42.869Z,14.57
2022-12-28T09:47:12.478Z,15.02
2022-12-28T09:51:14.985Z,14.50
2022-12-28T09:55:18.719Z,14.80
2022-12-28T09:59:24.309Z,14.38
2022-12-28T10:03:33.286Z,13.50
2022-12-28T10:07:37.303Z,12.95
2022-12-28T10:11:41.889Z,11.80
2022-12-28T10:15:44.037Z,12.55
2022-12-28T10:19:47.548Z,11.20
2022-12-28T10:28:16.845Z,10.18
2022-12-28T10:32:19.384Z,10.93
2022-12-28T10:36:22.894Z,10.48
2022-12-28T10:40:29.640Z,11.43
2022-12-28T10:44:41.598Z,11.68
2022-12-28T10:48:51.561Z,9.95
2022-12-28T10:52:58.441Z,10.05
2022-12-28T10:57:00.406Z,9.60
2022-12-28T11:01:13.768Z,9.68
2022-12-28T11:05:24.445Z,8.98
2022-12-28T11:09:28.738Z,9.55
2022-12-28T11:13:30.536Z,10.00
2022-12-28T11:17:37.596Z,9.32
2022-12-28T11:21:41.115Z,10.43
2022-12-28T11:25:43.193Z,9.98
2022-12-28T11:29:47.814Z,10.88
2022-12-28T11:33:53.666Z,10.98
2022-12-28T11:37:58.372Z,10.82
2022-12-28T11:46:23.350Z,11.93
2022-12-28T11:50:34.743Z,12.77
2022-12-28T11:54:39.292Z,12.43
2022-12-28T11:58:41.259Z,11.55
2022-12-28T12:02:49.626Z,12.45
2022-12-28T12:06:51.782Z,12.05
2022-12-28T12:11:25.681Z,11.68
2022-12-28T12:15:48.280Z,12.52
2022-12-28T12:20:01.532Z,13.15
2022-12-28T12:24:26.799Z,13.70
2022-12-28T12:28:39.317Z,12.30
2022-12-28T12:33:00.525Z,11.75
2022-12-28T12:37:15.618Z,11.15
2022-12-28T12:41:30.432Z,10.40
2022-12-28T12:46:00.305Z,10.80
2022-12-28T12:50:07.855Z,11.15
2022-12-28T12:54:26.877Z,10.30
2022-12-28T12:58:51.234Z,11.52
2022-12-28T13:03:43.927Z,9.82
2022-12-28T13:07:46.111Z,11.45
2022-12-28T13:11:48.309Z,10.65
2022-12-28T13:15:50.422Z,11.75
2022-12-28T13:20:08.238Z,11.40
2022-12-28T13:24:18.653Z,11.80
2022-12-28T13:28:22.598Z,10.82
2022-12-28T13:32:37.820Z,10.85
2022-12-28T13:36:58.332Z,10.00
2022-12-28T13:41:01.991Z,9.90
2022-12-28T13:45:06.230Z,9.68
2022-12-28T13:49:09.054Z,9.48
2022-12-28T13:53:20.636Z,10.13
2022-12-28T14:01:50.872Z,10.07
2022-12-28T14:05:59.242Z,10.40
2022-12-28T14:10:02.860Z,11.02
2022-12-28T14:14:05.577Z,11.15
2022-12-28T14:18:08.526Z,10.25
2022-12-28T14:22:29.269Z,9.88
2022-12-28T14:26:31.718Z,9.93
2022-12-28T14:30:43.084Z,9.52
2022-12-28T14:34:46.819Z,10.73
2022-12-28T14:38:57.201Z,10.52
2022-12-28T14:43:32.503Z,9.95
2022-12-28T14:47:44.513Z,9.55
2022-12-28T14:51:46.231Z,11.15
2022-12-28T14:56:06.208Z,10.98
2022-12-28T15:00:25.794Z,11.80
2022-12-28T15:04:36.948Z,11.30
2022-12-28T15:08:39.102Z,10.02
2022-12-28T15:12:40.810Z,9.98
2022-12-28T15:16:42.845Z,10.43
2022-12-28T15:20:44.672Z,12.27
2022-12-28T15:24:48.804Z,24.25
2022-12-28T15:28:51.167Z,12.13
2022-12-28T15:32:53.191Z,10.82
2022-12-28T15:36:54.857Z,14.85
2022-12-28T15:40:56.830Z,12.50
2022-12-28T15:44:58.580Z,11.07
2022-12-28T15:49:05.333Z,10.85
2022-12-28T15:53:07.005Z,12.52
2022-12-28T15:57:11.781Z,10.85
2022-12-28T16:01:13.578Z,11.20
2022-12-28T16:05:15.656Z,10.98
2022-12-28T16:09:17.575Z,13.25
2022-12-28T16:13:19.504Z,9.60
2022-12-28T16:17:21.187Z,8.68
2022-12-28T16:21:24.874Z,8.88
2022-12-28T16:25:26.593Z,10.88
2022-12-28T16:29:28.574Z,10.15
2022-12-28T16:33:30.615Z,10.98
2022-12-28T16:37:32.543Z,10.00
2022-12-28T16:41:38.164Z,9.57
2022-12-28T16:45:43.132Z,11.15
2022-12-28T16:49:44.789Z,14.18
2022-12-28T16:53:46.787Z,15.32
2022-12-28T16:57:48.716Z,9.73
2022-12-28T17:01:52.496Z,10.70
2022-12-28T17:05:54.575Z,12.13
2022-12-28T17:09:56.584Z,10.82
2022-12-28T17:14:07.034Z,10.80
2022-12-28T17:18:09.907Z,12.05
2022-12-28T17:22:11.839Z,11.27
2022-12-28T17:26:13.803Z,10.07
2022-12-28T17:30:15.566Z,10.38
2022-12-28T17:34:19.753Z,11.32
2022-12-28T17:38:21.421Z,10.88
2022-12-28T17:42:23.712Z,10.40
2022-12-28T17:46:28.160Z,10.75
2022-12-28T17:50:30.095Z,11.27
2022-12-28T17:54:32.268Z,11.45
2022-12-28T17:58:34.684Z,24.67
2022-12-28T18:02:36.505Z,11.63
2022-12-28T18:06:39.254Z,11.15
2022-12-28T18:10:41.049Z,12.32
2022-12-28T18:14:43.281Z,11.73
2022-12-28T18:18:45.714Z,11.18
2022-12-28T18:22:47.733Z,11.18
2022-12-28T18:26:49.714Z,10.27
2022-12-28T18:30:54.297Z,11.02
2022-12-28T18:34:58.249Z,11.30
2022-12-28T18:39:00.168Z,13.88
2022-12-28T18:43:01.996Z,11.25
2022-12-28T18:47:03.978Z,10.55
2022-12-28T18:51:12.808Z,12.07
2022-12-28T18:55:15.287Z,10.73
2022-12-28T18:59:16.973Z,10.77
2022-12-28T19:03:19.262Z,11.68
2022-12-28T19:07:21.097Z,11.27
2022-12-28T19:11:23.055Z,12.00
2022-12-28T19:15:24.806Z,11.60
2022-12-28T19:19:26.824Z,10.90
2022-12-28T19:23:28.523Z,11.18
2022-12-28T19:27:30.583Z,10.75
2022-12-28T19:31:33.333Z,10.15
2022-12-28T19:35:35.312Z,9.32
2022-12-28T19:39:37.029Z,9.75
2022-12-28T19:43:40.062Z,10.02
2022-12-28T19:47:41.692Z,10.10
2022-12-28T19:51:43.690Z,10.10
2022-12-28T19:55:45.336Z,9.98
2022-12-28T19:59:48.129Z,12.05
2022-12-28T20:03:49.903Z,10.85
2022-12-28T20:07:52.061Z,9.57
2022-12-28T20:11:53.721Z,9.95
2022-12-28T20:15:55.778Z,9.00
2022-12-28T20:19:57.589Z,10.35
2022-12-28T20:24:01.559Z,12.50
2022-12-28T20:28:03.432Z,10.60
2022-12-28T20:32:05.618Z,9.07
2022-12-28T20:36:13.015Z,10.60
2022-12-28T20:40:15.091Z,9.90
2022-12-28T20:44:22.184Z,9.23
2022-12-28T20:48:24.776Z,10.18
2022-12-28T20:52:26.566Z,9.43
2022-12-28T20:56:28.625Z,8.73
2022-12-28T21:00:30.377Z,10.32
2022-12-28T21:04:32.397Z,10.27
2022-12-28T21:08:35.079Z,9.90
2022-12-28T21:12:37.069Z,10.20
2022-12-28T21:16:38.725Z,9.13
2022-12-28T21:20:48.099Z,10.55
2022-12-28T21:24:49.681Z,10.73
2022-12-28T21:28:51.686Z,10.38
2022-12-28T21:32:53.998Z,9.77
2022-12-28T21:36:56.379Z,9.77
2022-12-28T21:41:04.464Z,10.38
2022-12-28T21:45:07.461Z,10.55
2022-12-28T21:49:09.571Z,10.07
2022-12-28T21:53:11.635Z,10.27
2022-12-28T21:57:13.457Z,10.45
2022-12-28T22:01:34.286Z,11.02
2022-12-28T22:05:54.796Z,11.13
2022-12-28T22:10:15.340Z,10.25
2022-12-28T22:14:16.925Z,9.13
2022-12-28T22:22:43.686Z,10.35
2022-12-28T22:26:45.730Z,10.75
2022-12-28T22:30:47.415Z,9.75
2022-12-28T22:34:49.373Z,10.05
2022-12-28T22:38:51.092Z,9.77
2022-12-28T22:42:53.307Z,9.60
2022-12-28T22:46:55.253Z,8.93
2022-12-28T22:51:02.229Z,9.52
2022-12-28T22:55:04.291Z,10.80
2022-12-28T22:59:09.654Z,9.75
2022-12-28T23:03:15.418Z,9.77
2022-12-28T23:07:17.962Z,8.48
2022-12-28T23:11:38.160Z,9.27
2022-12-28T23:15:40.130Z,8.45
2022-12-28T23:20:04.915Z,9.63
2022-12-28T23:24:30.864Z,9.32
2022-12-28T23:28:33.588Z,9.57
2022-12-28T23:32:35.598Z,9.07
2022-12-28T23:36:37.279Z,8.55
2022-12-28T23:40:40.126Z,8.68
2022-12-28T23:44:42.152Z,9.63
2022-12-28T23:48:44.080Z,9.00
2022-12-28T23:52:45.821Z,9.30
2022-12-28T23:56:49.077Z,9.48
